Check out our new BloomSky Weather System.

Active alerts


No alerts


Thunder radar  blitzortung!


Rain radar more information rain snow radar


Visit our other weather sites:

Template documentation
and downloads

And another site



Weather Underground History page Text

Daily Summary for July 11, 2017 Units:  English    Metric   Both
« Previous Day
Next Day »
Daily Weekly Monthly Yearly Custom
  High: Low: Average:
Temperature: TemperatureF °F 74.8 °F 83.7 °F
Dew Point: DewpointF °F 73.9 °F 76 °F
Humidity: Humidity % 55 % 79 %
Wind Speed: WindSpeedMPH mph 0.0 mph 2.1 mph
Wind Gust: WindSpeedGustMPH mph - -
Wind:- - SE
Pressure: PressureIn in 29.93 in -
Precipitation: 0.00 in    
Historical Graphs
 
 
Tabular Data for July 11, 2017
Time Temperature Dew Point Pressure Wind Wind Speed Wind Gust Humidity Rainfall Rate (Hourly)
TemperatureF °F DewpointF °F PressureIn in Calm     Humidity % HourlyPrecipIn in
00:01 78.4 °F 75.6 °F 29.99 in Calm   3.0 mph 91 % 0.00 in
00:06 78.4 °F 75.2 °F 29.99 in Calm   3.0 mph 90 % 0.00 in
00:11 78.4 °F 75.6 °F 29.99 in Calm   3.0 mph 91 % 0.00 in
00:16 78.4 °F 75.6 °F 29.99 in Calm   2.0 mph 91 % 0.00 in
00:21 78.3 °F 75.4 °F 29.99 in Calm   2.0 mph 91 % 0.00 in
00:26 78.3 °F 75.4 °F 29.98 in SE 1.0 mph 2.0 mph 91 % 0.00 in
00:31 78.3 °F 75.4 °F 29.98 in SE 1.0 mph 2.0 mph 91 % 0.00 in
00:36 78.3 °F 75.4 °F 29.98 in Calm   2.0 mph 91 % 0.00 in
00:41 78.3 °F 75.7 °F 29.98 in Calm   2.0 mph 92 % 0.00 in
00:46 78.1 °F 75.6 °F 29.98 in Calm   2.0 mph 92 % 0.00 in
00:51 77.9 °F 75.4 °F 29.98 in Calm   1.0 mph 92 % 0.00 in
00:56 77.7 °F 75.2 °F 29.98 in Calm   1.0 mph 92 % 0.00 in
01:01 77.7 °F 75.2 °F 29.98 in Calm   1.0 mph 92 % 0.00 in
01:06 77.7 °F 75.2 °F 29.97 in Calm     92 % 0.00 in
01:11 77.5 °F 75.4 °F 29.97 in Calm     93 % 0.00 in
01:16 77.5 °F 75.4 °F 29.97 in Calm     93 % 0.00 in
01:21 77.5 °F 75.4 °F 29.97 in Calm     93 % 0.00 in
01:26 77.4 °F 75.2 °F 29.97 in Calm     93 % 0.00 in
01:31 77.2 °F 75.0 °F 29.97 in Calm     93 % 0.00 in
01:36 77.2 °F 75.0 °F 29.97 in Calm     93 % 0.00 in
01:41 77.2 °F 75.4 °F 29.97 in Calm     94 % 0.00 in
01:46 77.2 °F 75.4 °F 29.97 in Calm     94 % 0.00 in
01:51 77.2 °F 75.4 °F 29.97 in Calm     94 % 0.00 in
01:56 77.2 °F 75.4 °F 29.97 in Calm     94 % 0.00 in
02:01 77.2 °F 75.4 °F 29.97 in Calm     94 % 0.00 in
02:06 76.8 °F 75.0 °F 29.96 in Calm     94 % 0.00 in
02:11 76.8 °F 75.0 °F 29.96 in Calm     94 % 0.00 in
02:16 76.6 °F 74.8 °F 29.96 in Calm     94 % 0.00 in
02:21 76.6 °F 75.0 °F 29.96 in Calm     95 % 0.00 in
02:26 76.6 °F 75.0 °F 29.96 in Calm     95 % 0.00 in
02:31 76.5 °F 74.8 °F 29.96 in Calm     95 % 0.00 in
02:32 76.5 °F 74.8 °F 29.96 in Calm     95 % 0.00 in
02:37 76.5 °F 74.8 °F 29.96 in Calm     95 % 0.00 in
02:38 76.5 °F 74.8 °F 29.96 in Calm     95 % 0.00 in
02:43 76.3 °F 74.7 °F 29.96 in Calm     95 % 0.00 in
02:48 75.9 °F 74.3 °F 29.96 in Calm     95 % 0.00 in
02:53 75.9 °F 74.3 °F 29.96 in Calm     95 % 0.00 in
02:58 75.9 °F 74.3 °F 29.96 in Calm     95 % 0.00 in
03:03 75.9 °F 74.3 °F 29.96 in Calm     95 % 0.00 in
03:08 75.7 °F 74.1 °F 29.96 in Calm     95 % 0.00 in
03:14 75.7 °F 74.5 °F 29.96 in Calm     96 % 0.00 in
03:19 75.7 °F 74.5 °F 29.96 in Calm     96 % 0.00 in
03:24 75.7 °F 74.5 °F 29.96 in Calm     96 % 0.00 in
03:29 75.7 °F 74.5 °F 29.96 in Calm     96 % 0.00 in
03:34 75.7 °F 74.5 °F 29.96 in Calm     96 % 0.00 in
03:39 75.6 °F 74.3 °F 29.96 in Calm     96 % 0.00 in
03:44 75.7 °F 74.8 °F 29.96 in Calm     97 % 0.00 in
03:49 75.7 °F 74.8 °F 29.96 in Calm     97 % 0.00 in
03:54 75.7 °F 74.5 °F 29.96 in Calm     96 % 0.00 in
04:58 75.4 °F 74.5 °F 29.96 in Calm     97 % 0.00 in
05:03 75.0 °F 74.1 °F 29.96 in Calm     97 % 0.00 in
05:08 75.2 °F 74.3 °F 29.96 in Calm     97 % 0.00 in
05:13 75.2 °F 74.7 °F 29.96 in Calm     98 % 0.00 in
05:18 75.4 °F 74.8 °F 29.96 in Calm     98 % 0.00 in
05:23 75.2 °F 74.3 °F 29.97 in Calm     97 % 0.00 in
05:28 75.0 °F 74.1 °F 29.97 in Calm     97 % 0.00 in
05:33 74.8 °F 73.9 °F 29.97 in Calm     97 % 0.00 in
05:38 74.8 °F 74.3 °F 29.97 in Calm     98 % 0.00 in
05:43 75.0 °F 74.5 °F 29.97 in Calm     98 % 0.00 in
05:48 75.0 °F 74.5 °F 29.98 in Calm     98 % 0.00 in
05:53 75.0 °F 74.5 °F 29.98 in Calm     98 % 0.00 in
05:58 75.0 °F 74.5 °F 29.98 in Calm     98 % 0.00 in
06:03 75.0 °F 74.5 °F 29.98 in Calm     98 % 0.00 in
06:08 75.0 °F 74.5 °F 29.98 in Calm     98 % 0.00 in
06:13 75.0 °F 74.5 °F 29.98 in Calm     98 % 0.00 in
06:18 75.0 °F 74.5 °F 29.98 in Calm     98 % 0.00 in
06:23 75.0 °F 74.5 °F 29.98 in Calm     98 % 0.00 in
06:38 75.4 °F 74.8 °F 29.98 in Calm     98 % 0.00 in
06:49 75.4 °F 74.8 °F 29.98 in Calm     98 % 0.00 in
06:54 75.7 °F 75.2 °F 29.98 in Calm     98 % 0.00 in
06:59 75.7 °F 75.2 °F 29.99 in Calm     98 % 0.00 in
07:04 75.9 °F 75.4 °F 29.99 in Calm     98 % 0.00 in
07:09 76.3 °F 75.7 °F 29.99 in Calm     98 % 0.00 in
07:14 76.8 °F 76.3 °F 29.99 in Calm     98 % 0.00 in
07:19 77.4 °F 76.8 °F 29.99 in Calm     98 % 0.00 in
07:24 77.9 °F 77.4 °F 29.99 in Calm     98 % 0.00 in
07:29 78.1 °F 77.5 °F 29.99 in Calm     98 % 0.00 in
07:34 77.7 °F 77.2 °F 29.99 in Calm     98 % 0.00 in
07:39 77.9 °F 77.4 °F 30.00 in Calm     98 % 0.00 in
07:44 78.1 °F 77.5 °F 30.00 in Calm     98 % 0.00 in
07:49 78.1 °F 77.5 °F 30.00 in Calm     98 % 0.00 in
07:54 78.1 °F 77.5 °F 30.01 in Calm     98 % 0.00 in
07:59 78.3 °F 77.7 °F 30.01 in Calm   1.0 mph 98 % 0.00 in
08:04 78.3 °F 77.7 °F 30.01 in Calm   1.0 mph 98 % 0.00 in
08:09 78.4 °F 77.5 °F 30.01 in Calm   1.0 mph 97 % 0.00 in
08:14 78.4 °F 77.5 °F 30.01 in Calm   1.0 mph 97 % 0.00 in
08:19 78.6 °F 77.7 °F 30.01 in Calm   1.0 mph 97 % 0.00 in
08:24 78.8 °F 77.9 °F 30.01 in SE 1.0 mph 1.0 mph 97 % 0.00 in
08:29 79.0 °F 78.1 °F 30.01 in Calm   1.0 mph 97 % 0.00 in
08:34 79.3 °F 78.4 °F 30.01 in Calm   1.0 mph 97 % 0.00 in
08:39 79.9 °F 79.0 °F 30.01 in Calm   1.0 mph 97 % 0.00 in
08:44 80.1 °F 79.2 °F 30.01 in SE 1.0 mph 1.0 mph 97 % 0.00 in
08:49 80.2 °F 79.0 °F 30.01 in Calm   1.0 mph 96 % 0.00 in
08:54 80.6 °F 79.0 °F 30.01 in Calm   1.0 mph 95 % 0.00 in
08:57 80.8 °F 79.2 °F 30.01 in Calm   1.0 mph 95 % 0.00 in
09:58 84.9 °F 79.9 °F 30.01 in SSW 3.0 mph 5.0 mph 85 % 0.00 in
10:03 85.1 °F 79.0 °F 30.01 in SSW 2.0 mph 5.0 mph 82 % 0.00 in
10:08 85.5 °F 79.7 °F 30.01 in Calm   5.0 mph 83 % 0.00 in
10:13 85.8 °F 79.7 °F 30.01 in SSW 3.0 mph 4.0 mph 82 % 0.00 in
10:18 86.0 °F 79.2 °F 30.01 in SSE 1.0 mph 4.0 mph 80 % 0.00 in
10:23 86.0 °F 78.8 °F 30.01 in Calm   4.0 mph 79 % 0.00 in
10:28 86.0 °F 79.2 °F 30.01 in South 2.0 mph 4.0 mph 80 % 0.00 in
10:33 86.2 °F 79.3 °F 30.01 in SSW 1.0 mph 4.0 mph 80 % 0.00 in
10:38 86.2 °F 78.4 °F 30.01 in South 1.0 mph 5.0 mph 78 % 0.00 in
10:43 86.2 °F 78.4 °F 30.01 in SE 3.0 mph 5.0 mph 78 % 0.00 in
10:48 86.4 °F 79.0 °F 30.01 in SSE 3.0 mph 5.0 mph 79 % 0.00 in
10:53 87.1 °F 78.6 °F 30.01 in South 2.0 mph 5.0 mph 76 % 0.00 in
10:58 88.2 °F 79.2 °F 30.00 in SSE 2.0 mph 6.0 mph 75 % 0.00 in
11:03 88.5 °F 78.3 °F 30.00 in East 3.0 mph 6.0 mph 72 % 0.00 in
11:08 88.9 °F 77.0 °F 30.00 in SSE 3.0 mph 9.0 mph 68 % 0.00 in
11:13 89.2 °F 76.5 °F 30.00 in SW 5.0 mph 10.0 mph 66 % 0.00 in
11:18 89.6 °F 76.3 °F 30.00 in SSE 6.0 mph 10.0 mph 65 % 0.00 in
11:23 89.4 °F 76.1 °F 30.00 in SSE 6.0 mph 10.0 mph 65 % 0.00 in
11:28 89.6 °F 77.2 °F 30.00 in SE 5.0 mph 10.0 mph 67 % 0.00 in
11:33 90.1 °F 78.1 °F 30.00 in Calm   10.0 mph 68 % 0.00 in
11:38 90.5 °F 77.5 °F 29.99 in SE 3.0 mph 8.0 mph 66 % 0.00 in
11:43 90.9 °F 78.4 °F 29.99 in ESE 4.0 mph 7.0 mph 67 % 0.00 in
11:48 91.0 °F 77.5 °F 29.99 in WSW 5.0 mph 8.0 mph 65 % 0.00 in
11:53 91.0 °F 76.6 °F 29.99 in SSE 4.0 mph 10.0 mph 63 % 0.00 in
11:58 91.0 °F 77.2 °F 29.99 in SSE 7.0 mph 10.0 mph 64 % 0.00 in
12:03 91.4 °F 77.5 °F 29.99 in SSW 1.0 mph 11.0 mph 64 % 0.00 in
12:08 91.8 °F 76.8 °F 29.99 in SE 2.0 mph 11.0 mph 62 % 0.00 in
12:13 92.1 °F 78.6 °F 29.99 in South 3.0 mph 11.0 mph 65 % 0.00 in
12:16 92.5 °F 76.6 °F 29.99 in SW 2.0 mph 8.0 mph 60 % 0.00 in
12:21 92.5 °F 77.0 °F 29.98 in SW 3.0 mph 8.0 mph 61 % 0.00 in
12:26 92.1 °F 76.6 °F 29.98 in SSW 5.0 mph 9.0 mph 61 % 0.00 in
12:31 92.1 °F 76.6 °F 29.98 in South 2.0 mph 9.0 mph 61 % 0.00 in
12:36 92.5 °F 78.4 °F 29.98 in SSE 5.0 mph 9.0 mph 64 % 0.00 in
12:41 92.7 °F 76.8 °F 29.98 in SSW 3.0 mph 9.0 mph 60 % 0.00 in
12:46 92.5 °F 77.0 °F 29.98 in South 2.0 mph 9.0 mph 61 % 0.00 in
12:51 92.5 °F 77.5 °F 29.98 in SSW 2.0 mph 9.0 mph 62 % 0.00 in
12:56 93.0 °F 77.5 °F 29.98 in SSW 5.0 mph 6.0 mph 61 % 0.00 in
13:01 93.0 °F 75.6 °F 29.98 in SE 1.0 mph 9.0 mph 57 % 0.00 in
13:06 93.0 °F 75.0 °F 29.97 in ENE 2.0 mph 9.0 mph 56 % 0.00 in
13:11 93.4 °F 76.8 °F 29.97 in SE 6.0 mph 9.0 mph 59 % 0.00 in
13:16 93.4 °F 75.4 °F 29.97 in NNW 5.0 mph 8.0 mph 56 % 0.00 in
13:21 93.6 °F 76.1 °F 29.97 in South 7.0 mph 8.0 mph 57 % 0.00 in
13:26 93.6 °F 76.6 °F 29.97 in SE 5.0 mph 10.0 mph 58 % 0.00 in
13:31 93.4 °F 76.5 °F 29.97 in NNE 1.0 mph 10.0 mph 58 % 0.00 in
13:36 94.1 °F 77.0 °F 29.97 in ESE 4.0 mph 10.0 mph 58 % 0.00 in
13:41 93.9 °F 77.4 °F 29.96 in South 6.0 mph 10.0 mph 59 % 0.00 in
13:46 94.1 °F 77.0 °F 29.96 in SSW 4.0 mph 10.0 mph 58 % 0.00 in
13:51 94.3 °F 76.1 °F 29.96 in ESE 8.0 mph 10.0 mph 56 % 0.00 in
13:57 93.9 °F 75.7 °F 29.96 in ESE 4.0 mph 10.0 mph 56 % 0.00 in
14:02 93.4 °F 76.8 °F 29.96 in South 4.0 mph 10.0 mph 59 % 0.00 in
14:07 93.6 °F 76.1 °F 29.96 in SE 3.0 mph 10.0 mph 57 % 0.00 in
14:12 93.7 °F 76.6 °F 29.96 in East 6.0 mph 9.0 mph 58 % 0.00 in
14:17 93.6 °F 76.6 °F 29.96 in SSE 1.0 mph 9.0 mph 58 % 0.00 in
14:22 93.4 °F 75.9 °F 29.95 in South 1.0 mph 9.0 mph 57 % 0.00 in
14:27 93.7 °F 75.7 °F 29.95 in South 3.0 mph 6.0 mph 56 % 0.00 in
14:32 93.4 °F 75.4 °F 29.95 in SSE 5.0 mph 7.0 mph 56 % 0.00 in
14:37 93.4 °F 75.4 °F 29.94 in SSW 3.0 mph 7.0 mph 56 % 0.00 in
14:42 93.7 °F 76.3 °F 29.94 in SSE 5.0 mph 7.0 mph 57 % 0.00 in
14:47 94.1 °F 77.0 °F 29.94 in WSW 1.0 mph 8.0 mph 58 % 0.00 in
14:52 94.5 °F 75.7 °F 29.94 in Calm   8.0 mph 55 % 0.00 in
14:57 94.8 °F 76.1 °F 29.94 in NW 1.0 mph 8.0 mph 55 % 0.00 in
15:02 95.4 °F 76.6 °F 29.94 in SSE 3.0 mph 8.0 mph 55 % 0.00 in
15:07 94.6 °F 75.9 °F 29.94 in East 2.0 mph 8.0 mph 55 % 0.00 in
15:12 93.6 °F 75.0 °F 29.94 in SE 1.0 mph 8.0 mph 55 % 0.00 in
15:17 93.4 °F 75.4 °F 29.94 in SSE 3.0 mph 8.0 mph 56 % 0.00 in
15:23 93.0 °F 75.0 °F 29.94 in SE 3.0 mph 7.0 mph 56 % 0.00 in
15:27 93.0 °F 76.1 °F 29.94 in Calm   6.0 mph 58 % 0.00 in
15:33 92.8 °F 75.9 °F 29.94 in East 2.0 mph 6.0 mph 58 % 0.00 in
15:38 93.2 °F 75.2 °F 29.94 in ESE 4.0 mph 8.0 mph 56 % 0.00 in
15:43 93.4 °F 75.4 °F 29.94 in SSE 3.0 mph 8.0 mph 56 % 0.00 in
15:48 93.6 °F 76.1 °F 29.94 in SE 3.0 mph 8.0 mph 57 % 0.00 in
15:53 93.7 °F 76.3 °F 29.93 in ENE 4.0 mph 8.0 mph 57 % 0.00 in
15:58 93.0 °F 76.1 °F 29.93 in SSE 6.0 mph 8.0 mph 58 % 0.00 in
16:03 92.5 °F 76.1 °F 29.93 in SSE 4.0 mph 8.0 mph 59 % 0.00 in
16:08 91.6 °F 76.6 °F 29.94 in SE 7.0 mph 10.0 mph 62 % 0.00 in
16:13 90.1 °F 76.8 °F 29.94 in ESE 11.0 mph 16.0 mph 65 % 0.00 in
16:18 88.5 °F 75.2 °F 29.94 in ESE 12.0 mph 19.0 mph 65 % 0.00 in
16:23 87.8 °F 75.4 °F 29.94 in SE 4.0 mph 19.0 mph 67 % 0.00 in
16:28 87.4 °F 75.6 °F 29.94 in SE 3.0 mph 19.0 mph 68 % 0.00 in
16:33 87.4 °F 75.9 °F 29.93 in ESE 6.0 mph 16.0 mph 69 % 0.00 in
16:38 87.4 °F 75.9 °F 29.93 in East 3.0 mph 11.0 mph 69 % 0.00 in
16:43 87.3 °F 76.3 °F 29.94 in ENE 7.0 mph 11.0 mph 70 % 0.00 in
16:48 86.9 °F 76.3 °F 29.94 in SSW 4.0 mph 10.0 mph 71 % 0.00 in
16:53 86.7 °F 76.1 °F 29.94 in SE 3.0 mph 10.0 mph 71 % 0.00 in
16:58 86.7 °F 75.7 °F 29.94 in SE 4.0 mph 10.0 mph 70 % 0.00 in
17:03 86.7 °F 75.7 °F 29.93 in East 5.0 mph 10.0 mph 70 % 0.00 in
17:08 86.5 °F 75.6 °F 29.93 in SE 4.0 mph 12.0 mph 70 % 0.00 in
17:13 86.5 °F 75.6 °F 29.94 in SE 4.0 mph 12.0 mph 70 % 0.00 in
17:18 86.5 °F 75.9 °F 29.93 in ESE 2.0 mph 12.0 mph 71 % 0.00 in
17:23 86.5 °F 75.6 °F 29.93 in ESE 6.0 mph 9.0 mph 70 % 0.00 in
17:25 86.4 °F 75.4 °F 29.93 in ESE 2.0 mph 9.0 mph 70 % 0.00 in
17:30 86.4 °F 75.4 °F 29.93 in SE 5.0 mph 9.0 mph 70 % 0.00 in
17:35 86.4 °F 75.9 °F 29.93 in ESE 4.0 mph 9.0 mph 71 % 0.00 in
17:40 86.4 °F 75.9 °F 29.93 in East 5.0 mph 8.0 mph 71 % 0.00 in
17:45 86.2 °F 75.7 °F 29.93 in SE 4.0 mph 8.0 mph 71 % 0.00 in
17:50 85.8 °F 75.4 °F 29.93 in SE 6.0 mph 9.0 mph 71 % 0.00 in
17:55 85.6 °F 75.2 °F 29.93 in SE 5.0 mph 9.0 mph 71 % 0.00 in
18:00 85.5 °F 75.0 °F 29.93 in ESE 5.0 mph 10.0 mph 71 % 0.00 in
18:05 85.5 °F 75.0 °F 29.93 in SSE 4.0 mph 10.0 mph 71 % 0.00 in
18:10 85.5 °F 75.0 °F 29.93 in South 4.0 mph 10.0 mph 71 % 0.00 in
18:15 85.5 °F 75.4 °F 29.93 in SSE 3.0 mph 10.0 mph 72 % 0.00 in
18:16 85.6 °F 75.9 °F 29.93 in Calm   10.0 mph 73 % 0.00 in
18:21 85.8 °F 75.7 °F 29.93 in South 4.0 mph 10.0 mph 72 % 0.00 in
18:26 86.2 °F 76.5 °F 29.93 in SSE 2.0 mph 10.0 mph 73 % 0.00 in
18:31 86.4 °F 76.6 °F 29.93 in ESE 3.0 mph 8.0 mph 73 % 0.00 in
18:36 86.5 °F 76.8 °F 29.93 in ESE 3.0 mph 8.0 mph 73 % 0.00 in
18:41 86.7 °F 77.0 °F 29.93 in SSE 4.0 mph 8.0 mph 73 % 0.00 in
18:46 86.7 °F 77.0 °F 29.93 in SE 8.0 mph 8.0 mph 73 % 0.00 in
18:51 86.7 °F 77.0 °F 29.93 in ESE 4.0 mph 11.0 mph 73 % 0.00 in
18:56 86.7 °F 77.0 °F 29.94 in ESE 2.0 mph 11.0 mph 73 % 0.00 in
19:01 86.5 °F 76.8 °F 29.94 in SE 6.0 mph 11.0 mph 73 % 0.00 in
19:06 86.5 °F 76.8 °F 29.94 in SE 6.0 mph 10.0 mph 73 % 0.00 in
19:12 86.5 °F 76.8 °F 29.94 in ESE 6.0 mph 10.0 mph 73 % 0.00 in
19:17 86.5 °F 76.8 °F 29.94 in South 5.0 mph 9.0 mph 73 % 0.00 in
19:22 86.5 °F 76.8 °F 29.94 in SSE 3.0 mph 11.0 mph 73 % 0.00 in
19:27 86.4 °F 76.6 °F 29.94 in SSE 3.0 mph 11.0 mph 73 % 0.00 in
19:32 86.4 °F 76.6 °F 29.94 in SE 1.0 mph 11.0 mph 73 % 0.00 in
19:37 86.2 °F 77.0 °F 29.94 in SE 5.0 mph 9.0 mph 74 % 0.00 in
19:42 86.0 °F 76.8 °F 29.94 in SE 3.0 mph 9.0 mph 74 % 0.00 in
19:47 85.8 °F 77.0 °F 29.94 in East 2.0 mph 7.0 mph 75 % 0.00 in
19:52 85.8 °F 77.0 °F 29.94 in ESE 2.0 mph 6.0 mph 75 % 0.00 in
19:57 85.8 °F 77.0 °F 29.94 in SSE 4.0 mph 6.0 mph 75 % 0.00 in
20:02 85.6 °F 77.2 °F 29.94 in SE 3.0 mph 6.0 mph 76 % 0.00 in
20:07 85.6 °F 77.2 °F 29.94 in SE 2.0 mph 6.0 mph 76 % 0.00 in
20:12 85.5 °F 77.0 °F 29.94 in East 2.0 mph 7.0 mph 76 % 0.00 in
20:17 85.5 °F 77.4 °F 29.94 in SE 2.0 mph 7.0 mph 77 % 0.00 in
20:22 85.5 °F 77.4 °F 29.94 in ESE 3.0 mph 7.0 mph 77 % 0.00 in
20:27 85.3 °F 77.2 °F 29.94 in SE 3.0 mph 5.0 mph 77 % 0.00 in
20:32 85.3 °F 77.7 °F 29.94 in Calm   5.0 mph 78 % 0.00 in
20:37 84.9 °F 77.4 °F 29.94 in SE 3.0 mph 5.0 mph 78 % 0.00 in
20:42 84.9 °F 77.7 °F 29.94 in SSE 2.0 mph 5.0 mph 79 % 0.00 in
20:47 84.7 °F 77.5 °F 29.94 in SE 5.0 mph 5.0 mph 79 % 0.00 in
20:52 84.7 °F 77.9 °F 29.95 in East 1.0 mph 7.0 mph 80 % 0.00 in
20:57 84.7 °F 77.9 °F 29.95 in SE 2.0 mph 7.0 mph 80 % 0.00 in
21:02 84.6 °F 77.7 °F 29.95 in ESE 2.0 mph 7.0 mph 80 % 0.00 in
21:07 84.4 °F 77.9 °F 29.95 in SSE 2.0 mph 6.0 mph 81 % 0.00 in
21:12 84.4 °F 77.9 °F 29.95 in ESE 3.0 mph 5.0 mph 81 % 0.00 in
21:17 84.0 °F 77.5 °F 29.95 in SE 3.0 mph 5.0 mph 81 % 0.00 in
21:22 84.2 °F 77.4 °F 29.95 in ESE 3.0 mph 8.0 mph 80 % 0.00 in
21:27 84.2 °F 77.0 °F 29.96 in SE 3.0 mph 8.0 mph 79 % 0.00 in
21:32 84.2 °F 77.0 °F 29.96 in East 5.0 mph 8.0 mph 79 % 0.00 in
21:37 84.0 °F 76.8 °F 29.96 in SSE 3.0 mph 6.0 mph 79 % 0.00 in
21:42 84.0 °F 76.8 °F 29.96 in SE 3.0 mph 6.0 mph 79 % 0.00 in
21:47 83.8 °F 76.6 °F 29.96 in SE 3.0 mph 6.0 mph 79 % 0.00 in
21:52 83.8 °F 76.6 °F 29.96 in SE 3.0 mph 7.0 mph 79 % 0.00 in
21:57 83.8 °F 76.6 °F 29.97 in SE 1.0 mph 7.0 mph 79 % 0.00 in
22:02 83.8 °F 76.6 °F 29.97 in SSE 4.0 mph 7.0 mph 79 % 0.00 in
22:07 83.8 °F 76.6 °F 29.97 in ESE 2.0 mph 7.0 mph 79 % 0.00 in
22:12 83.7 °F 76.5 °F 29.97 in SSE 2.0 mph 5.0 mph 79 % 0.00 in
22:17 83.7 °F 76.5 °F 29.97 in South 4.0 mph 6.0 mph 79 % 0.00 in
22:22 83.7 °F 76.5 °F 29.97 in SSE 4.0 mph 7.0 mph 79 % 0.00 in
22:27 83.5 °F 76.6 °F 29.97 in SSW 3.0 mph 7.0 mph 80 % 0.00 in
22:32 83.5 °F 76.6 °F 29.98 in ESE 4.0 mph 7.0 mph 80 % 0.00 in
22:37 83.3 °F 76.5 °F 29.98 in SSE 2.0 mph 7.0 mph 80 % 0.00 in
22:42 83.1 °F 76.6 °F 29.98 in SSE 2.0 mph 7.0 mph 81 % 0.00 in
22:47 82.9 °F 76.5 °F 29.98 in SE 2.0 mph 7.0 mph 81 % 0.00 in
22:52 82.9 °F 76.8 °F 29.99 in SSE 2.0 mph 5.0 mph 82 % 0.00 in
22:57 82.8 °F 76.6 °F 29.99 in ESE 1.0 mph 5.0 mph 82 % 0.00 in
23:02 82.8 °F 76.6 °F 29.99 in East 2.0 mph 5.0 mph 82 % 0.00 in
23:07 82.6 °F 76.5 °F 29.99 in SSE 2.0 mph 5.0 mph 82 % 0.00 in
23:12 82.6 °F 76.8 °F 29.99 in South 3.0 mph 5.0 mph 83 % 0.00 in
23:17 82.2 °F 76.5 °F 29.99 in SE 2.0 mph 5.0 mph 83 % 0.00 in
23:22 82.2 °F 76.5 °F 29.99 in SE 1.0 mph 5.0 mph 83 % 0.00 in
23:27 82.0 °F 76.3 °F 29.99 in ESE 1.0 mph 5.0 mph 83 % 0.00 in
23:32 82.0 °F 76.6 °F 29.99 in Calm   5.0 mph 84 % 0.00 in
23:37 81.9 °F 76.5 °F 29.99 in SE 1.0 mph 3.0 mph 84 % 0.00 in
23:42 81.9 °F 76.5 °F 29.99 in Calm   3.0 mph 84 % 0.00 in
23:47 81.9 °F 76.5 °F 29.99 in Calm   3.0 mph 84 % 0.00 in
23:52 81.7 °F 76.3 °F 29.99 in SE 1.0 mph 3.0 mph 84 % 0.00 in
23:57 81.5 °F 76.5 °F 29.99 in SSE 1.0 mph 4.0 mph 85 % 0.00 in
Spring, Texas: Villages of Bridgestone
Compliments of Weather Underground - 2.75 mb

Script developed by  Jim McMurry - jmcmurry@mwt.net Adapted for the template by  Wim van der Kuil - Leuven-Template.eu

You find our weather info also at:

UK Metoffice

WeatherCloud

Weather Underground

Mid-South Weather Network

AWEKAS

Citizen Weather Observer Program (CWOP)

HAMweather, WeatherForYou, PWS Weather

Equipment we use:

Weather-station
Davis Vantage Vue

Weather-program
Meteohub

Weather-server
Debian 7.9 x86 (Guest)

Provider
DreamHost

Davis Vantage Vue

Meteohub

Debian 7.9 x86 (Guest)

DreamHost